Time;durP1;ratioP1;P1;durP2;ratioP2;P2;SDS_P1;SDS_P2;PMS_P1;PMS_P2;Temp;Humidity;BMP_temperature;BMP_pressure;BME280_temperature;BME280_humidity;BME280_pressure;Samples;Min_cycle;Max_cycle;Signal;HPM_P1;HPM_P2
2023/08/02 00:00:00;;;;;;;3.75;1.50;;;15.60;99.90;;;;;;5077433;28;20087;-72
2023/08/02 00:02:25;;;;;;;6.57;1.50;;;15.70;99.90;;;;;;5041746;28;20074;-72
2023/08/02 00:04:51;;;;;;;4.60;1.73;;;15.70;99.90;;;;;;5042165;28;20033;-72
2023/08/02 00:07:17;;;;;;;3.72;1.70;;;15.70;99.90;;;;;;5042325;28;20045;-72
2023/08/02 00:09:42;;;;;;;5.72;1.75;;;15.70;99.90;;;;;;5043427;28;20029;-72
2023/08/02 00:12:08;;;;;;;3.45;1.40;;;15.70;99.90;;;;;;5040727;28;20522;-72
2023/08/02 00:14:34;;;;;;;3.83;1.27;;;15.60;99.90;;;;;;5040733;28;20052;-72
2023/08/02 00:16:59;;;;;;;3.38;1.50;;;15.60;99.90;;;;;;5039765;28;20037;-72
2023/08/02 00:19:25;;;;;;;4.50;1.63;;;15.60;99.90;;;;;;5040396;28;20045;-72
2023/08/02 00:21:50;;;;;;;2.60;1.38;;;15.60;99.90;;;;;;5042499;28;20399;-72
2023/08/02 00:24:16;;;;;;;3.45;1.42;;;15.60;99.90;;;;;;5039920;28;20487;-72
2023/08/02 00:26:42;;;;;;;3.97;1.25;;;15.60;99.90;;;;;;5041317;28;20737;-72
2023/08/02 00:29:07;;;;;;;3.63;1.42;;;15.60;99.90;;;;;;5042595;28;20049;-72
2023/08/02 00:31:33;;;;;;;3.25;1.20;;;15.60;99.90;;;;;;5040717;28;20422;-72
2023/08/02 00:33:58;;;;;;;4.82;1.27;;;15.70;99.90;;;;;;5040591;28;20040;-72
2023/08/02 00:36:24;;;;;;;4.80;1.40;;;15.60;99.90;;;;;;5043393;28;20055;-72
2023/08/02 00:38:50;;;;;;;4.50;1.27;;;15.60;99.90;;;;;;5040556;28;20033;-72
2023/08/02 00:41:15;;;;;;;4.00;1.20;;;15.60;99.90;;;;;;5041758;28;20041;-72
2023/08/02 00:43:46;;;;;;;5.63;1.30;;;15.60;99.90;;;;;;5038782;28;20075;-72
2023/08/02 00:46:17;;;;;;;4.93;1.48;;;15.60;99.90;;;;;;5074059;28;20079;-72
2023/08/02 00:48:45;;;;;;;2.42;1.10;;;15.60;99.90;;;;;;5072359;28;20082;-72
2023/08/02 00:51:15;;;;;;;4.82;1.65;;;15.60;99.90;;;;;;5043313;28;20080;-72
2023/08/02 00:53:42;;;;;;;2.95;1.52;;;15.60;99.90;;;;;;5021015;28;20083;-72
2023/08/02 00:56:09;;;;;;;5.15;2.17;;;15.60;99.90;;;;;;5041576;28;20087;-72
2023/08/02 00:58:35;;;;;;;4.97;1.58;;;15.50;99.90;;;;;;5038823;28;20045;-72
2023/08/02 01:01:07;;;;;;;5.47;1.35;;;15.60;99.90;;;;;;5024472;28;20036;-72
2023/08/02 01:03:44;;;;;;;3.97;1.50;;;15.60;99.90;;;;;;5041369;28;20036;-72
2023/08/02 01:06:32;;;;;;;4.95;1.42;;;15.60;99.90;;;;;;5042348;28;20112;-72
2023/08/02 01:09:03;;;;;;;3.63;1.30;;;15.60;99.90;;;;;;5036566;28;20041;-72
2023/08/02 01:11:41;;;;;;;2.38;1.35;;;15.60;99.90;;;;;;5053318;28;20037;-72
2023/08/02 01:14:12;;;;;;;3.72;1.92;;;15.60;99.90;;;;;;5037771;28;20098;-72
2023/08/02 01:16:38;;;;;;;5.38;1.30;;;15.60;99.90;;;;;;5042092;28;20063;-73
2023/08/02 01:19:11;;;;;;;7.35;1.63;;;15.60;99.90;;;;;;5071011;28;20069;-72
2023/08/02 01:21:37;;;;;;;3.78;1.25;;;15.60;99.90;;;;;;5073994;28;20048;-72
2023/08/02 01:24:03;;;;;;;5.53;1.20;;;15.60;99.90;;;;;;5039365;28;20339;-72
2023/08/02 01:26:31;;;;;;;2.60;1.30;;;15.60;99.90;;;;;;5072416;28;20045;-72
2023/08/02 01:29:02;;;;;;;5.60;1.45;;;15.60;99.90;;;;;;5033353;28;20056;-72
2023/08/02 01:31:29;;;;;;;2.97;1.52;;;15.60;99.90;;;;;;5037670;28;20040;-72
2023/08/02 01:33:56;;;;;;;2.20;1.30;;;15.60;99.90;;;;;;5072118;28;20510;-72
2023/08/02 01:36:23;;;;;;;6.82;1.48;;;15.60;99.90;;;;;;5037918;28;20935;-72
2023/08/02 01:38:48;;;;;;;3.47;1.45;;;15.60;99.90;;;;;;5071654;28;20083;-73
2023/08/02 01:41:14;;;;;;;4.20;1.60;;;15.60;99.90;;;;;;5041131;28;20427;-73
2023/08/02 01:43:39;;;;;;;6.47;1.52;;;15.60;99.90;;;;;;5073440;28;20061;-72
2023/08/02 01:46:05;;;;;;;2.92;1.52;;;15.50;99.90;;;;;;5040444;28;20044;-73
2023/08/02 01:48:30;;;;;;;5.35;1.67;;;15.60;99.90;;;;;;5074127;28;20542;-73
2023/08/02 01:50:56;;;;;;;3.40;1.40;;;15.60;99.90;;;;;;5053171;28;20508;-72
2023/08/02 01:53:22;;;;;;;5.40;1.48;;;15.40;99.90;;;;;;5038196;28;20033;-72
2023/08/02 01:55:47;;;;;;;4.65;1.35;;;15.60;99.90;;;;;;5036606;28;20044;-72
2023/08/02 01:58:13;;;;;;;4.03;1.40;;;15.50;99.90;;;;;;5041249;28;20060;-73
2023/08/02 02:00:39;;;;;;;2.75;1.27;;;15.50;99.90;;;;;;5040084;28;20036;-72
2023/08/02 02:03:04;;;;;;;3.90;1.40;;;15.60;99.90;;;;;;5042224;28;20032;-72
2023/08/02 02:05:30;;;;;;;2.80;1.63;;;15.50;99.90;;;;;;5039960;28;20021;-72
2023/08/02 02:07:55;;;;;;;4.90;1.25;;;15.50;99.90;;;;;;5020936;28;20043;-72
2023/08/02 02:10:21;;;;;;;8.30;1.98;;;15.50;99.90;;;;;;5071698;28;20415;-72
2023/08/02 02:12:46;;;;;;;3.53;1.80;;;15.50;99.90;;;;;;5039678;28;20114;-72
2023/08/02 02:15:12;;;;;;;6.30;1.45;;;15.50;99.90;;;;;;5036837;28;20033;-72
2023/08/02 02:17:39;;;;;;;5.28;1.48;;;15.50;99.90;;;;;;5036792;28;20045;-72
2023/08/02 02:20:06;;;;;;;5.50;1.15;;;15.50;99.90;;;;;;5040279;28;20064;-72
2023/08/02 02:22:31;;;;;;;3.88;1.70;;;15.50;99.90;;;;;;5071340;28;20080;-72
2023/08/02 02:24:57;;;;;;;3.88;1.70;;;15.50;99.90;;;;;;5037250;28;20483;-72
2023/08/02 02:27:23;;;;;;;3.08;1.63;;;15.50;99.90;;;;;;5040106;28;20084;-72
2023/08/02 02:29:48;;;;;;;3.63;1.45;;;15.50;99.90;;;;;;5037713;28;20045;-72
2023/08/02 02:32:14;;;;;;;5.35;1.77;;;15.50;99.90;;;;;;5042024;28;20075;-72
2023/08/02 02:34:39;;;;;;;5.05;1.67;;;15.50;99.90;;;;;;5054920;28;20058;-72
2023/08/02 02:37:05;;;;;;;4.55;1.35;;;15.50;99.90;;;;;;5072135;28;20067;-72
2023/08/02 02:39:31;;;;;;;3.50;1.35;;;15.50;99.90;;;;;;5055271;28;20086;-72
2023/08/02 02:41:56;;;;;;;5.72;1.67;;;15.50;99.90;;;;;;5039238;28;20040;-72
2023/08/02 02:44:22;;;;;;;4.90;1.52;;;15.50;99.90;;;;;;5035698;28;20082;-72
2023/08/02 02:46:47;;;;;;;4.07;1.80;;;15.50;99.90;;;;;;5038056;28;20091;-72
2023/08/02 02:49:13;;;;;;;4.35;1.55;;;15.50;99.90;;;;;;5039629;28;20094;-72
2023/08/02 02:51:38;;;;;;;3.97;1.50;;;15.50;99.90;;;;;;5040025;28;20040;-72
2023/08/02 02:54:04;;;;;;;4.25;1.80;;;15.50;99.90;;;;;;5038450;28;20076;-72
2023/08/02 02:56:30;;;;;;;4.70;1.65;;;15.50;99.90;;;;;;5037952;28;20033;-72
2023/08/02 02:58:55;;;;;;;7.22;1.90;;;15.50;99.90;;;;;;5039388;28;20306;-72
2023/08/02 03:01:21;;;;;;;8.68;2.63;;;15.50;99.90;;;;;;5038377;28;20044;-73
2023/08/02 03:03:46;;;;;;;10.63;2.13;;;15.50;99.90;;;;;;5073368;28;20094;-73
2023/08/02 03:06:12;;;;;;;7.45;1.88;;;15.50;99.90;;;;;;5033892;28;20470;-72
2023/08/02 03:08:37;;;;;;;6.78;1.73;;;15.50;99.90;;;;;;5053757;28;20090;-73
2023/08/02 03:11:03;;;;;;;5.07;1.48;;;15.40;99.90;;;;;;5020262;28;20045;-72
2023/08/02 03:13:29;;;;;;;6.30;1.90;;;15.50;99.90;;;;;;5016043;28;20367;-72
2023/08/02 03:15:54;;;;;;;5.03;1.83;;;15.40;99.90;;;;;;5072064;28;20119;-72
2023/08/02 03:18:20;;;;;;;4.35;2.08;;;15.40;99.90;;;;;;5045069;28;20037;-72
2023/08/02 03:20:46;;;;;;;6.13;1.90;;;15.40;99.90;;;;;;5025434;28;20514;-72
2023/08/02 03:23:11;;;;;;;7.00;2.05;;;15.40;99.90;;;;;;5042978;28;20041;-72
2023/08/02 03:25:37;;;;;;;6.10;2.35;;;15.40;99.90;;;;;;5040677;28;20471;-73
2023/08/02 03:28:03;;;;;;;5.20;1.75;;;15.30;99.90;;;;;;5042392;28;20041;-73
2023/08/02 03:30:28;;;;;;;6.90;1.88;;;15.40;99.90;;;;;;5076393;28;20433;-72
2023/08/02 03:32:54;;;;;;;3.25;1.63;;;15.30;99.90;;;;;;5041359;28;20116;-72
2023/08/02 03:35:19;;;;;;;4.90;1.80;;;15.30;99.90;;;;;;5041957;28;20484;-72
2023/08/02 03:37:45;;;;;;;5.13;1.52;;;15.30;99.90;;;;;;5041370;28;20664;-72
2023/08/02 03:40:11;;;;;;;6.57;1.80;;;15.30;99.90;;;;;;5023249;28;20060;-72
2023/08/02 03:42:37;;;;;;;6.72;2.78;;;15.30;99.90;;;;;;5044076;28;20416;-72
2023/08/02 03:45:03;;;;;;;6.65;2.28;;;15.30;99.90;;;;;;5023694;28;20037;-72
2023/08/02 03:47:28;;;;;;;3.10;1.70;;;15.30;99.90;;;;;;5071991;28;20329;-73
2023/08/02 03:49:54;;;;;;;5.85;2.25;;;15.30;99.90;;;;;;5016143;28;20267;-72
2023/08/02 03:52:20;;;;;;;5.10;2.10;;;15.30;99.90;;;;;;5043839;28;20044;-72
2023/08/02 03:54:47;;;;;;;7.13;2.33;;;15.30;99.90;;;;;;5019988;28;20041;-72
2023/08/02 03:57:13;;;;;;;6.03;1.75;;;15.20;99.90;;;;;;5025049;28;20167;-72
2023/08/02 03:59:38;;;;;;;7.60;2.13;;;15.20;99.90;;;;;;5042306;28;20149;-72
2023/08/02 04:02:04;;;;;;;8.57;2.17;;;15.20;99.90;;;;;;5042985;28;20040;-72
2023/08/02 04:04:29;;;;;;;5.85;1.90;;;15.20;99.90;;;;;;5039634;28;20033;-72
2023/08/02 04:06:55;;;;;;;6.18;1.92;;;15.20;99.90;;;;;;5041548;28;20487;-72
2023/08/02 04:09:20;;;;;;;4.47;2.00;;;15.10;99.90;;;;;;5042673;28;20040;-72
2023/08/02 04:11:46;;;;;;;3.22;1.90;;;15.10;99.90;;;;;;5042981;28;21453;-73
2023/08/02 04:14:12;;;;;;;7.10;2.20;;;15.10;99.90;;;;;;5041483;28;20581;-72
2023/08/02 04:16:37;;;;;;;5.63;2.42;;;15.10;99.90;;;;;;5040882;28;20151;-72
2023/08/02 04:19:03;;;;;;;3.85;1.90;;;15.10;99.90;;;;;;5043448;28;20040;-72
2023/08/02 04:21:28;;;;;;;6.30;2.55;;;15.10;99.90;;;;;;5042912;28;20045;-73
2023/08/02 04:23:54;;;;;;;7.30;2.40;;;15.00;99.90;;;;;;5041879;28;20207;-72
2023/08/02 04:26:19;;;;;;;4.10;2.22;;;15.10;99.90;;;;;;5023521;28;20056;-72
2023/08/02 04:28:46;;;;;;;6.45;2.25;;;15.00;99.90;;;;;;5040550;28;20044;-73
2023/08/02 04:31:12;;;;;;;8.20;2.55;;;15.00;99.90;;;;;;5041239;28;20040;-72
2023/08/02 04:33:39;;;;;;;5.45;1.95;;;15.00;99.90;;;;;;5071979;28;20056;-73
2023/08/02 04:36:05;;;;;;;4.80;1.90;;;15.00;99.90;;;;;;5042006;28;20045;-72
2023/08/02 04:38:30;;;;;;;5.35;2.00;;;15.00;99.90;;;;;;5076146;28;20422;-72
2023/08/02 04:40:56;;;;;;;9.13;2.47;;;15.00;99.90;;;;;;5044643;28;20460;-72
2023/08/02 04:43:22;;;;;;;6.20;2.42;;;15.00;99.90;;;;;;5044447;28;20071;-72
2023/08/02 04:45:48;;;;;;;7.13;1.98;;;15.00;99.90;;;;;;5044855;28;20045;-72
2023/08/02 04:48:13;;;;;;;6.00;2.33;;;15.00;99.90;;;;;;5045631;28;20295;-72
2023/08/02 04:50:39;;;;;;;4.03;1.75;;;15.00;99.90;;;;;;5057936;28;20707;-72
2023/08/02 04:53:04;;;;;;;4.53;1.98;;;15.00;99.90;;;;;;5037419;28;20037;-73
2023/08/02 04:55:39;;;;;;;7.53;2.63;;;15.00;99.90;;;;;;5036946;28;20140;-72
2023/08/02 04:58:05;;;;;;;7.43;2.38;;;15.00;99.90;;;;;;5040726;28;20439;-73
2023/08/02 05:00:30;;;;;;;7.65;2.22;;;15.00;99.90;;;;;;5038719;28;20039;-73
2023/08/02 05:02:56;;;;;;;6.07;2.20;;;15.00;99.90;;;;;;5037867;28;20493;-73
2023/08/02 05:05:24;;;;;;;6.28;2.47;;;15.00;99.90;;;;;;5038104;28;20029;-73
2023/08/02 05:07:49;;;;;;;5.40;2.38;;;15.00;99.90;;;;;;5038091;28;20037;-72
2023/08/02 05:10:15;;;;;;;5.72;2.30;;;15.00;99.90;;;;;;5037964;28;20487;-72
2023/08/02 05:12:40;;;;;;;7.88;2.28;;;15.00;99.90;;;;;;5022155;28;20483;-72
2023/08/02 05:15:07;;;;;;;6.47;1.98;;;15.00;99.90;;;;;;5041143;28;20387;-72
2023/08/02 05:17:33;;;;;;;5.00;2.30;;;15.00;99.90;;;;;;5055592;28;20048;-73
2023/08/02 05:19:59;;;;;;;4.57;2.35;;;15.00;99.90;;;;;;5040721;28;20041;-72
2023/08/02 05:22:24;;;;;;;5.93;2.30;;;15.00;99.90;;;;;;5036102;28;20037;-73
2023/08/02 05:24:51;;;;;;;6.38;2.58;;;15.00;99.90;;;;;;5039782;28;20063;-73
2023/08/02 05:27:17;;;;;;;4.55;1.98;;;15.10;99.90;;;;;;5039291;28;20091;-72
2023/08/02 05:29:42;;;;;;;6.25;2.15;;;15.10;99.90;;;;;;5038421;28;20451;-72
2023/08/02 05:32:08;;;;;;;5.38;2.63;;;15.20;99.90;;;;;;5034143;28;20526;-72
2023/08/02 05:34:33;;;;;;;9.00;2.47;;;15.10;99.90;;;;;;5037028;28;20803;-72
2023/08/02 05:36:59;;;;;;;8.05;2.42;;;15.20;99.90;;;;;;5051995;28;20045;-73
2023/08/02 05:39:24;;;;;;;3.83;2.25;;;15.10;99.90;;;;;;5034401;28;20395;-72
2023/08/02 05:41:50;;;;;;;6.20;2.25;;;15.20;99.90;;;;;;5036820;28;20059;-73
2023/08/02 05:44:16;;;;;;;4.60;2.17;;;15.20;99.90;;;;;;5052593;28;20056;-73
2023/08/02 05:46:42;;;;;;;7.82;2.72;;;15.30;99.90;;;;;;5035753;28;20033;-73
2023/08/02 05:49:07;;;;;;;10.43;2.47;;;15.30;99.90;;;;;;5040217;28;20083;-73
2023/08/02 05:51:33;;;;;;;5.28;2.25;;;15.30;99.90;;;;;;5035345;28;20045;-73
2023/08/02 05:53:58;;;;;;;5.43;2.47;;;15.40;99.90;;;;;;5036434;28;20102;-74
2023/08/02 05:56:25;;;;;;;10.95;2.40;;;15.40;99.90;;;;;;5033312;28;20040;-74
2023/08/02 05:58:50;;;;;;;6.05;2.25;;;15.40;99.90;;;;;;5038421;28;20048;-73
2023/08/02 06:01:16;;;;;;;5.50;2.45;;;15.50;99.90;;;;;;5033116;28;20040;-74
2023/08/02 06:03:42;;;;;;;5.78;2.03;;;15.50;99.90;;;;;;5036945;28;20029;-74
2023/08/02 06:06:07;;;;;;;7.90;2.28;;;15.50;99.90;;;;;;5035980;28;20670;-74
2023/08/02 06:08:33;;;;;;;5.78;2.22;;;15.50;99.90;;;;;;5037038;28;20036;-74
2023/08/02 06:11:00;;;;;;;5.90;2.08;;;15.60;99.90;;;;;;5036464;28;20127;-74
2023/08/02 06:13:26;;;;;;;6.53;2.72;;;15.60;99.90;;;;;;5039568;28;20553;-73
2023/08/02 06:15:52;;;;;;;4.38;2.42;;;15.60;99.90;;;;;;5037003;28;20045;-73
2023/08/02 06:18:18;;;;;;;4.28;2.22;;;15.60;99.90;;;;;;5067633;28;20037;-72
2023/08/02 06:20:44;;;;;;;5.65;2.20;;;15.70;99.90;;;;;;5068120;28;20037;-74
2023/08/02 06:23:09;;;;;;;5.05;1.80;;;15.70;99.90;;;;;;5018185;28;20041;-75
2023/08/02 06:25:35;;;;;;;4.03;2.10;;;15.70;99.90;;;;;;5038521;28;20037;-74
2023/08/02 06:28:00;;;;;;;5.15;2.15;;;15.70;99.90;;;;;;5037262;28;20067;-75
2023/08/02 06:30:26;;;;;;;5.25;2.28;;;15.70;99.90;;;;;;5054557;28;20037;-75
2023/08/02 06:32:52;;;;;;;6.50;2.30;;;15.80;99.90;;;;;;5035238;28;20167;-75
2023/08/02 06:35:17;;;;;;;4.93;2.03;;;15.80;99.90;;;;;;5043934;28;20040;-75
2023/08/02 06:37:43;;;;;;;3.55;1.95;;;15.80;99.90;;;;;;5045447;28;20083;-75
2023/08/02 06:40:10;;;;;;;6.95;2.13;;;15.90;99.90;;;;;;5072453;28;20048;-75
2023/08/02 06:42:36;;;;;;;5.50;1.67;;;16.10;99.90;;;;;;5040072;28;20045;-75
2023/08/02 06:45:01;;;;;;;3.90;1.85;;;16.20;99.90;;;;;;5069784;28;21680;-75
2023/08/02 06:47:27;;;;;;;6.78;1.70;;;16.30;99.90;;;;;;5040752;28;20471;-75
2023/08/02 06:49:52;;;;;;;7.50;2.05;;;16.30;99.90;;;;;;5022908;28;20041;-76
2023/08/02 06:52:18;;;;;;;4.53;1.80;;;16.30;99.90;;;;;;5039868;28;20056;-75
2023/08/02 06:54:43;;;;;;;5.05;1.65;;;16.30;99.90;;;;;;5038227;28;20104;-75
2023/08/02 06:57:09;;;;;;;5.22;1.60;;;16.30;99.90;;;;;;5042375;28;20060;-74
2023/08/02 06:59:34;;;;;;;4.45;1.50;;;16.20;99.90;;;;;;5046794;28;20041;-74
2023/08/02 07:02:00;;;;;;;6.45;1.90;;;16.20;99.90;;;;;;5048089;28;20281;-75
2023/08/02 07:04:25;;;;;;;4.85;1.70;;;16.10;99.90;;;;;;5047534;28;20029;-74
2023/08/02 07:06:51;;;;;;;3.92;1.60;;;16.10;99.90;;;;;;5039485;28;20446;-74
2023/08/02 07:09:17;;;;;;;2.95;1.52;;;16.10;99.90;;;;;;5039380;28;20112;-74
2023/08/02 07:11:42;;;;;;;5.47;1.67;;;16.00;99.90;;;;;;5042732;28;20037;-74
2023/08/02 07:14:08;;;;;;;6.80;1.70;;;16.10;99.90;;;;;;5040824;28;20041;-74
2023/08/02 07:16:33;;;;;;;3.45;1.55;;;16.00;99.90;;;;;;5066865;28;20152;-74
2023/08/02 07:19:02;;;;;;;6.45;1.70;;;16.00;99.90;;;;;;5073741;28;20064;-75
2023/08/02 07:21:29;;;;;;;3.95;1.27;;;16.00;99.90;;;;;;5072949;28;20111;-74
2023/08/02 07:23:55;;;;;;;4.78;1.42;;;16.00;99.90;;;;;;5073454;28;20110;-74
2023/08/02 07:26:22;;;;;;;6.57;1.90;;;16.00;99.90;;;;;;5037525;28;20053;-75
2023/08/02 07:28:48;;;;;;;3.92;1.52;;;16.00;99.90;;;;;;5042624;28;20037;-75
2023/08/02 07:31:14;;;;;;;6.78;1.42;;;16.00;99.90;;;;;;5042690;28;20517;-75
2023/08/02 07:33:39;;;;;;;3.80;1.50;;;16.00;99.90;;;;;;5041147;28;20040;-75
2023/08/02 07:36:13;;;;;;;4.63;1.45;;;16.00;99.90;;;;;;5068828;28;20051;-73
2023/08/02 07:38:39;;;;;;;5.05;1.50;;;16.00;99.90;;;;;;5040237;28;20159;-74
2023/08/02 07:41:04;;;;;;;3.75;1.40;;;16.00;99.90;;;;;;5041783;28;20124;-74
2023/08/02 07:43:30;;;;;;;5.30;1.70;;;16.10;99.90;;;;;;5022304;28;20063;-74
2023/08/02 07:45:56;;;;;;;5.88;1.20;;;16.10;99.90;;;;;;5040893;28;20159;-74
2023/08/02 07:48:21;;;;;;;4.70;1.63;;;16.10;99.90;;;;;;5071995;28;20047;-74
2023/08/02 07:50:47;;;;;;;4.90;1.40;;;16.10;99.90;;;;;;5018451;28;20490;-74
2023/08/02 07:53:12;;;;;;;6.22;1.80;;;16.10;99.90;;;;;;5036803;28;20045;-74
2023/08/02 07:55:38;;;;;;;4.40;1.63;;;16.00;99.90;;;;;;5040037;28;20336;-73
2023/08/02 07:58:04;;;;;;;8.23;1.65;;;16.00;99.90;;;;;;5077071;28;20509;-73
2023/08/02 08:00:29;;;;;;;6.07;1.55;;;16.00;99.90;;;;;;5043291;28;20051;-73
2023/08/02 08:02:55;;;;;;;8.98;1.65;;;16.00;99.90;;;;;;5043697;28;22050;-73
2023/08/02 08:05:20;;;;;;;5.85;1.50;;;15.90;99.90;;;;;;5041690;28;20125;-73
2023/08/02 08:07:46;;;;;;;7.50;1.38;;;15.90;99.90;;;;;;5041847;28;20123;-73
2023/08/02 08:10:12;;;;;;;3.22;0.95;;;15.90;99.90;;;;;;5042562;28;20029;-73
2023/08/02 08:12:37;;;;;;;6.15;1.40;;;15.90;99.90;;;;;;5046852;28;20182;-73
2023/08/02 08:15:03;;;;;;;3.30;1.10;;;15.90;99.90;;;;;;5075933;28;20341;-73
2023/08/02 08:17:29;;;;;;;3.58;1.52;;;15.80;99.90;;;;;;5045053;28;20419;-73
2023/08/02 08:19:54;;;;;;;5.70;1.27;;;15.80;99.90;;;;;;5041959;28;20143;-73
2023/08/02 08:22:22;;;;;;;4.28;1.38;;;15.80;99.90;;;;;;5041489;28;20118;-73
2023/08/02 08:24:48;;;;;;;4.97;1.50;;;15.80;99.90;;;;;;5043232;28;20074;-73
2023/08/02 08:27:14;;;;;;;5.60;1.50;;;15.80;99.90;;;;;;5040591;28;20574;-73
2023/08/02 08:29:39;;;;;;;3.58;1.30;;;15.70;99.90;;;;;;5042527;28;20029;-73
2023/08/02 08:32:05;;;;;;;4.63;1.25;;;15.70;99.90;;;;;;5077496;28;20048;-73
2023/08/02 08:34:30;;;;;;;4.13;1.25;;;15.70;99.90;;;;;;5040331;28;20058;-73
2023/08/02 08:36:56;;;;;;;3.42;1.35;;;15.70;99.90;;;;;;5037874;28;20052;-72
2023/08/02 08:39:22;;;;;;;4.38;1.30;;;15.70;99.90;;;;;;5041180;28;20040;-72
2023/08/02 08:41:47;;;;;;;3.13;1.20;;;15.70;99.90;;;;;;5042834;28;20048;-73
2023/08/02 08:44:13;;;;;;;3.25;1.48;;;15.70;99.90;;;;;;5041888;28;20040;-73
2023/08/02 08:46:40;;;;;;;3.88;1.48;;;15.70;99.90;;;;;;5075805;28;20040;-73
2023/08/02 08:49:05;;;;;;;5.53;1.23;;;15.70;99.90;;;;;;5042119;28;20684;-73
2023/08/02 08:51:36;;;;;;;7.53;1.48;;;15.60;99.90;;;;;;5030650;28;20128;-73
2023/08/02 08:54:08;;;;;;;7.53;1.48;;;15.70;99.90;;;;;;5071725;28;20045;-73
2023/08/02 08:56:38;;;;;;;3.47;1.50;;;15.60;99.90;;;;;;5042165;28;20474;-74
2023/08/02 08:59:05;;;;;;;4.43;1.25;;;15.60;99.90;;;;;;5070704;28;20124;-75
2023/08/02 09:01:31;;;;;;;3.63;1.65;;;15.60;99.90;;;;;;5039707;28;20556;-74
2023/08/02 09:03:56;;;;;;;7.07;1.60;;;15.70;99.90;;;;;;5040652;28;20950;-74
2023/08/02 09:06:23;;;;;;;5.45;1.63;;;15.70;99.90;;;;;;5056030;28;20524;-74
2023/08/02 09:08:49;;;;;;;5.85;1.42;;;15.70;99.90;;;;;;5038844;28;20390;-74
2023/08/02 09:11:17;;;;;;;4.97;1.58;;;15.70;99.90;;;;;;5043557;28;20047;-73
2023/08/02 09:13:43;;;;;;;2.85;1.27;;;15.70;99.90;;;;;;5039344;28;20033;-72
2023/08/02 09:16:11;;;;;;;4.30;1.70;;;15.70;99.90;;;;;;5041361;28;20037;-74
2023/08/02 09:18:47;;;;;;;2.78;1.50;;;15.70;99.90;;;;;;5040460;28;20044;-74
2023/08/02 09:21:15;;;;;;;5.00;1.40;;;15.80;99.90;;;;;;5072197;28;20107;-74
2023/08/02 09:23:57;;;;;;;9.20;1.73;;;15.80;99.90;;;;;;5073484;28;20033;-74
2023/08/02 09:26:22;;;;;;;6.07;1.90;;;15.80;99.90;;;;;;5021765;28;20040;-74
2023/08/02 09:29:01;;;;;;;4.30;1.50;;;15.80;99.90;;;;;;5035034;28;20067;-74
2023/08/02 09:31:28;;;;;;;4.45;1.65;;;15.80;99.90;;;;;;5031811;28;20375;-74
2023/08/02 09:33:54;;;;;;;4.82;1.60;;;15.80;99.90;;;;;;5043916;28;20494;-73
2023/08/02 09:36:30;;;;;;;3.40;1.55;;;15.80;99.90;;;;;;5040781;28;20037;-73
2023/08/02 09:39:04;;;;;;;3.95;1.48;;;15.80;99.90;;;;;;5041513;28;20361;-76
2023/08/02 09:41:31;;;;;;;4.25;1.70;;;16.00;99.90;;;;;;5036692;28;20535;-73
2023/08/02 09:43:57;;;;;;;3.00;1.60;;;16.10;99.90;;;;;;5017945;28;20563;-73
2023/08/02 09:46:30;;;;;;;6.90;1.80;;;16.10;99.90;;;;;;5051846;28;20095;-73
2023/08/02 09:48:59;;;;;;;2.95;1.42;;;16.20;99.90;;;;;;5036889;28;20550;-73
2023/08/02 09:51:39;;;;;;;5.10;1.85;;;16.20;99.90;;;;;;5036938;28;20524;-73
2023/08/02 09:54:04;;;;;;;5.57;1.80;;;16.20;99.90;;;;;;5036103;28;20616;-73
2023/08/02 09:56:32;;;;;;;3.65;1.60;;;16.30;99.90;;;;;;5036935;28;20270;-73
2023/08/02 09:58:58;;;;;;;4.05;1.65;;;16.30;99.90;;;;;;5038335;28;20040;-73
2023/08/02 10:01:24;;;;;;;3.05;1.42;;;16.30;99.90;;;;;;5051087;28;20033;-72
2023/08/02 10:03:55;;;;;;;5.93;1.17;;;16.30;99.90;;;;;;5037924;28;20033;-73
2023/08/02 10:06:25;;;;;;;2.42;1.13;;;16.20;99.90;;;;;;5036956;28;20060;-74
2023/08/02 10:08:53;;;;;;;2.90;1.40;;;16.20;99.90;;;;;;5043233;28;20035;-74
2023/08/02 10:11:20;;;;;;;2.33;1.10;;;16.30;99.90;;;;;;5042259;28;20075;-74
2023/08/02 10:13:47;;;;;;;3.67;1.15;;;16.30;99.90;;;;;;5074216;28;20496;-74
2023/08/02 10:16:15;;;;;;;4.05;1.27;;;16.30;99.90;;;;;;5075496;28;20041;-73
2023/08/02 10:18:41;;;;;;;2.63;1.40;;;16.30;99.90;;;;;;5044593;28;20226;-73
2023/08/02 10:21:07;;;;;;;2.55;0.80;;;16.30;99.90;;;;;;5040366;28;20044;-73
2023/08/02 10:23:35;;;;;;;4.25;1.10;;;16.30;99.90;;;;;;5024358;28;20044;-73
2023/08/02 10:26:01;;;;;;;2.08;0.95;;;16.30;99.90;;;;;;5025278;28;20065;-74
2023/08/02 10:28:27;;;;;;;1.65;0.77;;;16.30;99.90;;;;;;5043262;28;20075;-74
2023/08/02 10:30:52;;;;;;;3.03;0.90;;;16.30;99.90;;;;;;5070951;28;20084;-75
2023/08/02 10:33:20;;;;;;;1.92;0.80;;;16.30;99.90;;;;;;5036958;28;20037;-75
2023/08/02 10:36:03;;;;;;;1.52;0.82;;;16.40;99.90;;;;;;5023582;28;20114;-73
2023/08/02 10:38:44;;;;;;;2.55;0.82;;;16.40;99.90;;;;;;5039182;28;20045;-73
2023/08/02 10:41:15;;;;;;;2.80;0.80;;;16.40;99.90;;;;;;5035054;28;20045;-73
2023/08/02 10:44:06;;;;;;;1.55;0.65;;;16.30;99.90;;;;;;5018009;28;20825;-73
2023/08/02 10:46:33;;;;;;;1.55;0.70;;;16.30;99.90;;;;;;5033804;28;20091;-73
2023/08/02 10:49:10;;;;;;;0.95;0.45;;;16.30;99.90;;;;;;5033941;28;20048;-73
2023/08/02 10:51:37;;;;;;;1.15;0.60;;;16.30;99.90;;;;;;5032997;28;20040;-73
2023/08/02 10:54:13;;;;;;;0.98;0.40;;;16.40;99.90;;;;;;5029684;28;20794;-73
2023/08/02 10:57:08;;;;;;;;;;;16.50;99.90;;;;;;5032078;28;20053;-73
2023/08/02 10:59:33;;;;;;;1.15;0.70;;;16.50;99.90;;;;;;5040620;28;19924;-73
2023/08/02 11:02:01;;;;;;;1.77;0.68;;;16.60;99.90;;;;;;5038810;28;20049;-73
2023/08/02 11:04:28;;;;;;;1.15;0.40;;;16.50;99.90;;;;;;5038716;28;20036;-74
2023/08/02 11:06:54;;;;;;;1.63;0.52;;;16.60;99.90;;;;;;5018526;28;20179;-73
2023/08/02 11:09:32;;;;;;;2.40;0.52;;;16.60;99.90;;;;;;5036916;28;20076;-74
2023/08/02 11:12:11;;;;;;;1.25;0.47;;;16.70;99.90;;;;;;5037651;28;20049;-74
2023/08/02 11:14:38;;;;;;;1.50;0.40;;;16.70;99.90;;;;;;5032398;28;20041;-74
2023/08/02 11:17:04;;;;;;;1.45;0.55;;;16.70;99.90;;;;;;5062724;28;20403;-73
2023/08/02 11:19:30;;;;;;;0.68;0.40;;;16.70;99.90;;;;;;5039935;28;20532;-73
2023/08/02 11:21:57;;;;;;;1.17;0.40;;;16.70;99.90;;;;;;5032975;28;20041;-73
2023/08/02 11:24:23;;;;;;;1.55;0.40;;;16.70;99.90;;;;;;5037075;28;20601;-73
2023/08/02 11:26:59;;;;;;;0.77;0.40;;;16.80;99.90;;;;;;5018241;28;20491;-73
2023/08/02 11:29:25;;;;;;;1.77;0.70;;;16.80;99.90;;;;;;5034103;28;20498;-74
2023/08/02 11:31:53;;;;;;;1.35;0.60;;;16.80;99.90;;;;;;5032564;28;20120;-73
2023/08/02 11:34:19;;;;;;;2.08;0.50;;;16.90;99.90;;;;;;5040260;28;20033;-74
2023/08/02 11:36:50;;;;;;;1.00;0.45;;;16.90;99.90;;;;;;5037806;28;20033;-73
2023/08/02 11:39:16;;;;;;;1.00;0.40;;;16.90;99.90;;;;;;5044456;28;20033;-73
2023/08/02 11:41:42;;;;;;;0.95;0.65;;;16.90;99.90;;;;;;5039412;28;20560;-73
2023/08/02 11:44:18;;;;;;;1.42;0.38;;;17.00;99.90;;;;;;5039999;28;20029;-73
2023/08/02 11:46:54;;;;;;;1.75;0.45;;;17.00;99.90;;;;;;5024307;28;20037;-73
2023/08/02 11:49:20;;;;;;;1.42;0.50;;;17.10;99.90;;;;;;5032350;28;20898;-73
2023/08/02 11:51:45;;;;;;;1.00;0.40;;;17.20;99.90;;;;;;5033957;28;21398;-73
2023/08/02 11:54:12;;;;;;;0.95;0.40;;;17.30;99.90;;;;;;5069441;28;20059;-73
2023/08/02 11:56:38;;;;;;;1.67;0.55;;;17.30;99.90;;;;;;5040835;28;20040;-73
2023/08/02 11:59:04;;;;;;;1.58;0.65;;;17.50;99.90;;;;;;5037978;28;20047;-73
2023/08/02 12:01:30;;;;;;;0.88;0.47;;;17.60;99.90;;;;;;5030730;28;20056;-73
2023/08/02 12:04:01;;;;;;;2.28;0.60;;;17.70;99.90;;;;;;5037202;28;20025;-74
2023/08/02 12:06:42;;;;;;;1.38;0.70;;;17.80;99.90;;;;;;5065378;28;20029;-73
2023/08/02 12:09:08;;;;;;;1.33;0.80;;;17.70;99.90;;;;;;5072314;28;20048;-74
2023/08/02 12:11:34;;;;;;;1.70;0.90;;;17.90;99.90;;;;;;5039880;28;20040;-73
2023/08/02 12:14:02;;;;;;;2.63;0.90;;;17.90;99.90;;;;;;5067072;28;20047;-73
2023/08/02 12:16:41;;;;;;;1.92;0.90;;;18.00;99.90;;;;;;5036948;28;20041;-73
2023/08/02 12:19:08;;;;;;;1.73;0.90;;;18.10;99.90;;;;;;5035946;28;20041;-73
2023/08/02 12:21:33;;;;;;;1.38;0.80;;;18.20;99.90;;;;;;5035074;28;20033;-74
2023/08/02 12:23:59;;;;;;;2.45;1.08;;;18.20;99.90;;;;;;5033914;28;20507;-74
2023/08/02 12:26:35;;;;;;;2.90;1.25;;;18.30;99.90;;;;;;5022381;28;20048;-74
2023/08/02 12:29:02;;;;;;;2.13;1.10;;;18.30;99.90;;;;;;5037578;28;20033;-73
2023/08/02 12:31:29;;;;;;;2.28;1.38;;;18.20;99.90;;;;;;5023135;28;20497;-74
2023/08/02 12:33:54;;;;;;;1.73;0.95;;;18.20;99.90;;;;;;5040999;28;20041;-74
2023/08/02 12:36:38;;;;;;;3.15;1.13;;;18.10;99.90;;;;;;5042650;28;20078;-74
2023/08/02 12:39:04;;;;;;;2.58;1.30;;;18.20;99.90;;;;;;5042368;28;20047;-74
2023/08/02 12:41:30;;;;;;;2.78;1.20;;;18.20;99.90;;;;;;5040988;28;20048;-74
2023/08/02 12:43:56;;;;;;;3.03;1.50;;;18.30;99.90;;;;;;5034031;28;20509;-75
2023/08/02 12:46:22;;;;;;;2.55;1.40;;;18.30;99.90;;;;;;5038438;28;20052;-74